createdAt,value
2018-07-02T14:02:20.286Z,95012.22
2018-07-02T14:04:51.337Z,95012.34
2018-07-02T14:07:22.332Z,95021.87
2018-07-02T14:09:53.253Z,95014.55
2018-07-02T14:12:24.416Z,95005.62
2018-07-02T14:14:55.567Z,95002.69
2018-07-02T14:17:27.337Z,95003.27
2018-07-02T14:19:58.570Z,95003.09
2018-07-02T14:22:31.890Z,95002.66
2018-07-02T14:25:03.128Z,94999.11
2018-07-02T14:27:34.632Z,94999.80
2018-07-02T14:30:07.990Z,94998.68
2018-07-02T14:32:39.729Z,94994.91
2018-07-02T14:35:11.282Z,94991.69
2018-07-02T14:37:42.647Z,94991.56
2018-07-02T14:40:13.918Z,94987.25
2018-07-02T14:42:45.229Z,94977.22
2018-07-02T14:45:16.580Z,94971.66
2018-07-02T14:47:48.751Z,94966.52
2018-07-02T14:50:20.293Z,94963.84
2018-07-02T14:52:51.648Z,94965.97
2018-07-02T14:55:23.262Z,94957.16
2018-07-02T14:57:54.621Z,94956.39
2018-07-02T15:00:26.321Z,94955.27
2018-07-02T15:02:57.829Z,94951.25
2018-07-02T15:05:29.291Z,94947.24
2018-07-02T15:08:00.829Z,94945.02
2018-07-02T15:10:31.903Z,94929.05
2018-07-02T15:13:03.276Z,94940.00
2018-07-02T15:15:34.350Z,94940.22
2018-07-02T15:18:05.482Z,94947.94
2018-07-02T15:20:37.064Z,94947.94
2018-07-02T15:23:08.449Z,94942.01
2018-07-02T15:25:40.042Z,94940.36
2018-07-02T15:28:11.039Z,94945.72
2018-07-02T15:30:42.985Z,94945.92
2018-07-02T15:33:13.553Z,94951.73
2018-07-02T15:35:45.093Z,94947.72
2018-07-02T15:38:16.567Z,94951.63
2018-07-02T15:40:47.425Z,94953.76
2018-07-02T15:43:18.947Z,94948.41
2018-07-02T15:45:50.141Z,94948.06
2018-07-02T15:48:21.245Z,94957.13
2018-07-02T15:50:52.332Z,94955.79
2018-07-02T15:53:23.952Z,94945.97
2018-07-02T15:55:55.423Z,94951.98
2018-07-02T15:58:26.360Z,94954.11
2018-07-02T16:00:57.368Z,94954.35
2018-07-02T16:03:29.019Z,94950.89
2018-07-02T16:06:02.944Z,94947.42
2018-07-02T16:08:33.000Z,94950.34
2018-07-02T16:11:03.929Z,94942.31
2018-07-02T16:13:35.255Z,94944.41
2018-07-02T16:16:06.481Z,94941.52
2018-07-02T16:18:37.466Z,94945.30
2018-07-02T16:21:10.084Z,94939.49
2018-07-02T16:23:41.225Z,94943.30
2018-07-02T16:26:12.041Z,94941.63
2018-07-02T16:28:43.265Z,94936.27
2018-07-02T16:31:14.964Z,94936.82
2018-07-02T16:33:46.263Z,94934.69
2018-07-02T16:36:17.260Z,94935.58
2018-07-02T16:38:48.142Z,94946.28
2018-07-02T16:41:19.416Z,94938.70
2018-07-02T16:43:50.400Z,94937.95
2018-07-02T16:46:21.514Z,94931.02
2018-07-02T16:48:52.983Z,94933.35
2018-07-02T16:51:24.396Z,94929.92
2018-07-02T16:53:55.616Z,94931.47
2018-07-02T16:56:27.672Z,94920.31
2018-07-02T16:59:06.657Z,94925.66
2018-07-02T17:01:37.435Z,94924.56
2018-07-02T17:04:09.135Z,94914.75
2018-07-02T17:06:40.124Z,94909.71
2018-07-02T17:09:13.289Z,94913.72
2018-07-02T17:11:44.720Z,94914.27
2018-07-02T17:14:16.321Z,94913.52
2018-07-02T17:16:47.400Z,94915.95
2018-07-02T17:19:18.327Z,94920.75
2018-07-02T17:21:49.423Z,94922.97
2018-07-02T17:24:20.451Z,94930.76
2018-07-02T17:26:51.231Z,94944.92
2018-07-02T17:29:22.273Z,94947.94
2018-07-02T17:31:53.953Z,94948.48
2018-07-02T17:34:27.181Z,94950.38
2018-07-02T17:36:58.955Z,94953.05
2018-07-02T17:39:30.030Z,94955.63
2018-07-02T17:41:59.899Z,94957.75
2018-07-02T17:44:31.318Z,94960.88
2018-07-02T17:47:02.684Z,94956.53
2018-07-02T17:49:33.813Z,94964.25
2018-07-02T17:52:05.195Z,94968.57
2018-07-02T17:54:36.548Z,94972.58
2018-07-02T17:57:07.980Z,94977.38
2018-07-02T17:59:37.980Z,94980.61
2018-07-02T18:02:09.047Z,94985.17
2018-07-02T18:04:41.022Z,94986.84
2018-07-02T18:07:33.676Z,94992.53
2018-07-02T18:10:05.170Z,94989.25
2018-07-02T18:12:35.995Z,94997.27
2018-07-02T18:15:07.889Z,94997.86
2018-07-02T18:17:39.011Z,94998.09
2018-07-02T18:20:10.482Z,95014.59
2018-07-02T18:22:41.367Z,95012.62
2018-07-02T18:25:13.133Z,95013.95
2018-07-02T18:27:44.184Z,95016.99
2018-07-02T18:30:15.574Z,95012.34
2018-07-02T18:32:47.065Z,95010.42
2018-07-02T18:35:18.998Z,95010.66
2018-07-02T18:37:50.480Z,95012.24
2018-07-02T18:40:21.366Z,95010.27
2018-07-02T18:42:52.469Z,95011.05
2018-07-02T18:46:43.727Z,95016.48
2018-07-02T18:49:15.607Z,95016.72
2018-07-02T18:51:46.681Z,95014.22
2018-07-02T18:54:17.910Z,95023.81
2018-07-02T18:56:48.694Z,95019.23
2018-07-02T18:59:19.669Z,95025.28
2018-07-02T19:01:50.624Z,95027.41
2018-07-02T19:04:21.733Z,95032.36
2018-07-02T19:06:53.212Z,95032.83
2018-07-02T19:09:24.670Z,95025.81
2018-07-02T19:11:56.242Z,95027.60
2018-07-02T19:14:27.765Z,95032.95
2018-07-02T19:16:58.564Z,95040.67
2018-07-02T19:19:29.761Z,95040.67
2018-07-02T19:22:01.135Z,95044.67
2018-07-02T19:24:32.738Z,95040.33
2018-07-02T19:27:03.939Z,95038.45
2018-07-02T19:29:36.030Z,95043.47
2018-07-02T19:32:07.483Z,95039.79
2018-07-02T19:34:38.455Z,95041.58
2018-07-02T19:37:09.447Z,95042.92
2018-07-02T19:39:40.660Z,95040.25
2018-07-02T19:42:11.728Z,95040.70
2018-07-02T19:44:42.829Z,95048.52
2018-07-02T19:47:14.290Z,95052.28
2018-07-02T19:49:45.597Z,95044.26
2018-07-02T19:52:16.866Z,95045.34
2018-07-02T19:54:48.139Z,95042.13
2018-07-02T19:57:19.590Z,95043.25
2018-07-02T19:59:51.140Z,95040.00
2018-07-02T20:02:22.272Z,95037.11
2018-07-02T20:04:53.472Z,95039.79
2018-07-02T20:07:24.584Z,95034.98
2018-07-02T20:09:55.782Z,95034.98
2018-07-02T20:12:26.765Z,95026.42
2018-07-02T20:14:58.310Z,95025.88
2018-07-02T20:17:30.675Z,95024.84
2018-07-02T20:20:01.674Z,95025.42
2018-07-02T20:22:33.663Z,95020.61
2018-07-02T20:25:04.881Z,95015.27
2018-07-02T20:27:36.205Z,95019.03
2018-07-02T20:30:10.266Z,95016.91
2018-07-02T20:32:43.141Z,95017.16
2018-07-02T20:35:14.217Z,95028.94
2018-07-02T20:37:45.603Z,95033.52
2018-07-02T20:40:16.642Z,95023.59
2018-07-02T20:42:48.457Z,95006.79
2018-07-02T20:45:19.839Z,95006.00
2018-07-02T20:47:51.797Z,95022.83
2018-07-02T20:50:22.931Z,95037.84
2018-07-02T20:52:54.441Z,95035.16
2018-07-02T20:55:25.459Z,95035.74
2018-07-02T20:57:56.460Z,95034.95
2018-07-02T21:00:30.595Z,95029.60
2018-07-02T21:03:03.134Z,95028.59
2018-07-02T21:05:34.763Z,95027.27
2018-07-02T21:08:06.383Z,95028.59
2018-07-02T21:10:37.641Z,95021.42
2018-07-02T21:13:08.865Z,95020.63
2018-07-02T21:15:40.217Z,95020.39
2018-07-02T21:18:11.604Z,95023.31
2018-07-02T21:20:43.277Z,95026.53
2018-07-02T21:23:14.233Z,95024.19
2018-07-02T21:25:45.517Z,95018.27
2018-07-02T21:28:17.552Z,95026.28
2018-07-02T21:30:48.892Z,95028.95
2018-07-02T21:33:20.765Z,95026.62
2018-07-02T21:35:52.533Z,95029.63
2018-07-02T21:38:23.478Z,95025.83
2018-07-02T21:40:55.374Z,95015.80
2018-07-02T21:43:26.604Z,95019.02
2018-07-02T21:45:57.937Z,95017.89
2018-07-02T21:48:29.006Z,95019.56
2018-07-02T21:51:00.598Z,95020.69
2018-07-02T21:53:32.254Z,95019.10
2018-07-02T21:56:03.293Z,95020.44
2018-07-02T21:58:34.562Z,95005.73
2018-07-02T22:01:06.500Z,95004.16
2018-07-02T22:03:37.639Z,95001.82
2018-07-02T22:06:08.412Z,95005.03
2018-07-02T22:08:39.264Z,95005.91
2018-07-02T22:11:10.048Z,95003.81
2018-07-02T22:13:41.252Z,94999.81
2018-07-02T22:16:12.501Z,95011.27
2018-07-02T22:18:43.713Z,95007.83
2018-07-02T22:21:14.925Z,95006.58
2018-07-02T22:23:46.619Z,95014.81
2018-07-02T22:26:17.588Z,95005.79
2018-07-02T22:28:49.178Z,94997.86
2018-07-02T22:31:20.285Z,95001.99
2018-07-02T22:33:51.589Z,94996.52
2018-07-02T22:36:22.510Z,94996.94
2018-07-02T22:38:53.935Z,94994.44
2018-07-02T22:41:25.425Z,95002.96
2018-07-02T22:43:56.445Z,95003.70
2018-07-02T22:46:27.500Z,94999.23
2018-07-02T22:48:58.401Z,94999.63
2018-07-02T22:51:29.441Z,94994.94
2018-07-02T22:54:00.875Z,94994.48
2018-07-02T22:56:32.530Z,94988.09
2018-07-02T22:59:03.664Z,94990.31
2018-07-02T23:01:34.888Z,94994.86
2018-07-02T23:04:05.947Z,94991.97
2018-07-02T23:06:37.512Z,94988.30
2018-07-02T23:09:11.153Z,94989.14
2018-07-02T23:11:42.266Z,94991.02
2018-07-02T23:14:13.470Z,94987.89
2018-07-02T23:16:44.444Z,94989.44
2018-07-02T23:19:14.398Z,94995.57
2018-07-02T23:21:45.579Z,94986.30
2018-07-02T23:24:16.497Z,94989.52
2018-07-02T23:26:47.497Z,94989.30
2018-07-02T23:29:18.446Z,94989.85
2018-07-02T23:31:49.290Z,94994.19
2018-07-02T23:34:20.265Z,94997.40
2018-07-02T23:36:51.769Z,94995.27
2018-07-02T23:39:23.537Z,94994.48
2018-07-02T23:41:54.487Z,94995.06
2018-07-02T23:44:25.492Z,94994.02
2018-07-02T23:46:56.934Z,94989.25
2018-07-02T23:49:27.902Z,94988.14
2018-07-02T23:51:59.257Z,94982.58
2018-07-02T23:54:30.407Z,94977.54
2018-07-02T23:57:01.520Z,94973.53
2018-07-02T23:59:32.449Z,94974.87
